createdAt,value
2023-03-08T00:00:02.982Z,5.73
2023-03-08T00:15:01.478Z,5.73
2023-03-08T00:30:01.913Z,5.73
2023-03-08T00:45:02.337Z,5.73
2023-03-08T01:00:01.642Z,5.73
2023-03-08T01:15:01.752Z,5.73
2023-03-08T01:30:02.256Z,5.73
2023-03-08T01:45:02.308Z,5.73
2023-03-08T02:00:02.842Z,5.73
2023-03-08T02:15:03.313Z,5.73
2023-03-08T02:30:02.254Z,5.73
2023-03-08T02:45:01.999Z,5.73
2023-03-08T03:00:02.620Z,5.73
2023-03-08T03:15:01.631Z,5.73
2023-03-08T03:30:02.023Z,5.73
2023-03-08T03:45:01.981Z,5.73
2023-03-08T04:00:02.561Z,5.73
2023-03-08T04:15:01.321Z,5.73
2023-03-08T04:30:01.645Z,5.73
2023-03-08T04:45:02.024Z,5.73
2023-03-08T05:00:01.937Z,5.73
2023-03-08T05:15:01.938Z,5.73
2023-03-08T05:30:01.908Z,5.73
2023-03-08T05:45:02.351Z,5.73
2023-03-08T06:00:02.835Z,5.73
2023-03-08T06:15:01.575Z,5.73
2023-03-08T06:30:02.054Z,5.73
2023-03-08T06:45:02.297Z,5.73
2023-03-08T07:00:01.780Z,5.73
2023-03-08T07:15:01.908Z,5.73
2023-03-08T07:30:03.235Z,5.73
2023-03-08T07:45:01.640Z,5.73
2023-03-08T08:00:02.247Z,5.73
2023-03-08T08:15:02.809Z,5.73
2023-03-08T08:30:02.034Z,5.73
2023-03-08T08:45:01.977Z,4.48
2023-03-08T09:00:01.805Z,4.63
2023-03-08T09:15:01.613Z,4.63
2023-03-08T09:30:02.180Z,4.63
2023-03-08T09:45:02.610Z,4.63
2023-03-08T10:00:01.666Z,4.63
2023-03-08T10:15:02.282Z,4.63
2023-03-08T10:30:02.167Z,4.63
2023-03-08T10:45:02.287Z,9.53
2023-03-08T11:00:02.541Z,9.6
2023-03-08T11:15:01.359Z,9.6
2023-03-08T11:30:01.771Z,9.6
2023-03-08T11:45:02.053Z,9.6
2023-03-08T12:00:02.457Z,9.6
2023-03-08T12:15:01.819Z,9.6
2023-03-08T12:30:02.057Z,8.77
2023-03-08T12:45:01.385Z,8.68
2023-03-08T13:00:01.806Z,8.64
2023-03-08T13:15:01.404Z,8.6
2023-03-08T13:30:02.017Z,8.85
2023-03-08T13:45:02.083Z,8.35
2023-03-08T14:00:01.466Z,8.56
2023-03-08T14:15:02.111Z,8.96
2023-03-08T14:30:02.179Z,8.97
2023-03-08T14:45:02.060Z,10.67
2023-03-08T15:00:01.857Z,11.7
2023-03-08T15:15:02.220Z,10.46
2023-03-08T15:30:01.875Z,9.98
2023-03-08T15:45:02.345Z,9.82
2023-03-08T16:00:01.594Z,9.72
2023-03-08T16:15:01.471Z,8.9
2023-03-08T16:30:01.852Z,8.35
2023-03-08T16:45:02.744Z,8.3
2023-03-08T17:00:02.003Z,8
2023-03-08T17:15:01.748Z,8.14
2023-03-08T17:30:02.186Z,8.28
2023-03-08T17:45:01.460Z,8.14
2023-03-08T18:00:02.240Z,8.28
2023-03-08T18:15:02.122Z,7.94
2023-03-08T18:30:02.409Z,7.67
2023-03-08T18:45:01.826Z,7.36
2023-03-08T19:00:02.537Z,7.5
2023-03-08T19:15:01.574Z,7
2023-03-08T19:30:02.650Z,6.84
2023-03-08T19:45:01.780Z,6.9
2023-03-08T20:00:01.644Z,6.86
2023-03-08T20:15:02.127Z,6.69
2023-03-08T20:30:01.491Z,6.61
2023-03-08T20:45:01.814Z,6.53
2023-03-08T21:00:02.906Z,6.84
2023-03-08T21:15:04.046Z,7.7
2023-03-08T21:30:01.639Z,6.82
2023-03-08T21:45:02.730Z,7.77
2023-03-08T22:00:01.924Z,7.84
2023-03-08T22:15:02.131Z,7.61
2023-03-08T22:30:01.975Z,7.4
2023-03-08T22:45:02.207Z,7.48
2023-03-08T23:00:01.620Z,8.27
2023-03-08T23:15:02.014Z,8.23
2023-03-08T23:30:02.498Z,7.98
2023-03-08T23:45:02.007Z,7.88
